Stone Cabin, Nevada Weather observations

Data are for observation ending at time listed.
 Day   Time    Ave.   Ave.  Ave.  Vector   Max.   Stn.    Total    Solar   Ave.  
  of    of     Air    Rel.  Wind   Wind    Wind   Baro.  Precip.   Rad.    Soil  
Year   Day     Temp.  Hum.  Speed  Dir.    Gust   Pres.                    Temp. 
2015   (PST)    F      %     mph   deg.    mph     mb.     in.     W/m2     F   
------------------------------------------------------------------------------
  84   14:00   61.5    23    4.4   141     12.2    825     0.00     795    58.1
  84   15:00   62.6    22    3.9   148     11.2    822     0.00     658    58.7
  84   16:00   62.5    22    3.8   117      8.2    822     0.00     455    57.8
  84   17:00   59.8    24    3.2   107      7.5    822     0.00     160    56.5
  84   18:00   56.8    29    2.4    99      6.4    823     0.00      62    55.1
  84   19:00   50.0    34    0.8   100      3.9    824     0.00       1    53.7
  84   20:00   46.6    35    0.8   301      4.3    822     0.00       0    52.0
  84   21:00   40.4    41    1.9   314      3.7    821     0.00       0    50.6
  84   22:00   37.7    44    1.3   309      3.2    822     0.00       0    49.4
  84   23:00   35.9    48    0.8   263      3.1    827     0.00       0    48.5
  85    0:00   36.4    51    0.8   216      3.2    826     0.00       0    47.6
  85    1:00   40.0    50    1.6   354      4.9    828     0.00       0    46.9
  85    2:00   38.2    53    1.2   358      4.7    828     0.00       0    46.4
  85    3:00   38.4    54    1.1    28      6.4    828     0.00       0    45.9
  85    4:00   34.2    60    1.2   273      5.0    828     0.00       0    45.4
  85    5:00   34.0    61    1.1   312      3.7    828     0.00       0    44.9
  85    6:00   31.9    65    1.7   297      3.7    829     0.00       2    44.4
  85    7:00   35.6    60    1.4   284      4.1    830     0.00      68    44.0
  85    8:00   48.7    39    1.2   109      3.3    830     0.00     345    44.1
  85    9:00   54.4    32    1.5   347      5.2    824     0.00     552    45.7
  85   10:00   57.8    30    2.1    70      6.1    827     0.00     726    48.6
  85   11:00   60.9    27    2.2   151      6.6    828     0.00     845    52.3
  85   12:00   63.7    25    2.8   115      7.1    823     0.00     889    56.4
  85   13:00   66.5    23    2.3    96      5.4    824     0.00     874    59.2

Return to Stone Cabin, Nevada graphs page.


Western Regional Climate Center,wrcc@dri.edu